YKMYAKIMA AIR TRML/MCALLISTER FLD
METARs for airports near YKM, sorted by distance:
N 0 nm 1098' KYKM 161053Z 27006KT 10SM CLR 01/01 A3011
N 28 nm 1763' KELN 161053Z 06003KT 10SM CLR 02/M01 A3011
N 51 nm 1248' KEAT 161055Z 29006KT 10SM CLR 08/03 A3010
E 53 nm 394' KRLD 161115Z 00000KT 10SM CLR 05/04 A3011
NE 61 nm 1276' KEPH 161053Z 35004KT 10SM CLR 06/03 A3010
E 61 nm 410' KPSC 161053Z 35003KT 10SM CLR 04/03 A3011
SW 62 nm 246' KDLS 161053Z 00000KT 10SM CLR 08/06 A3014
NE 63 nm 1188' KMWH 161052Z 00000KT 10SM CLR 04/03 A3011
SE 69 nm 644' KHRI 161053Z 16005KT 10SM CLR 06/03 A3012
NW 78 nm 537' KPLU 161055Z 00000KT 10SM FEW042 OVC055 15/07 A3007
NW 86 nm 322' KTCM 161058Z 19004KT 10SM FEW044 BKN060 OVC080 13/08 A3007
SE 88 nm 1496' KPDT 161053Z 00000KT 10SM CLR 05/01 A3012
NW 88 nm 32' KRNT 161053Z 00000KT 10SM BKN050 OVC110 13/09 A3006
W 89 nm 301' KGRF 161058Z 00000KT 10SM BKN046 OVC055 13/08 A3006
NW 89 nm 432' KSEA 161053Z 15005KT 10SM FEW042 FEW060 OVC100 12/09 A3007
NW 92 nm 21' KBFI 161053Z 14006KT 10SM BKN070 OVC110 13/09 A3007
NW 93 nm 294' KTIW 161053Z 00000KT 10SM FEW050 OVC060 12/10 A3007
E 97 nm 1194' KALW 161053Z 10007KT 10SM CLR 09/01 A3011
SW 98 nm 38' KTTD 161053Z 00000KT 10SM CLR 08/06 A3014
W 99 nm 207' KOLM 161054Z 20007KT 10SM BKN045 OVC060 13/08 A3007
TAFs for airports near YKM, sorted by distance:
N 0 nm 1098' KYKM KYKM 160525Z 1606/1706 29006KT P6SM FEW150 BKN200
  FM160900 VRB03KT P6SM FEW250
N 51 nm 1248' KEAT TAF KEAT 160520Z 1606/1706 30004KT P6SM SCT100 BKN200
  FM160800 31004KT P6SM SCT100 SCT250
  FM161800 VRB04KT P6SM SCT250
  FM170300 VRB02KT P6SM SCT120 BKN250
E 61 nm 410' KPSC KPSC 160525Z 1606/1706 VRB04KT P6SM SCT200
SW 62 nm 246' KDLS KDLS 160525Z 1606/1706 23005KT P6SM SCT200
  FM161800 33005KT P6SM SKC
NE 63 nm 1188' KMWH TAF KMWH 160520Z 1606/1706 VRB04KT P6SM SCT100 BKN200
  FM160900 VRB04KT P6SM SCT100 SCT250
  FM161800 17006KT P6SM SCT250
  FM170300 VRB03KT P6SM FEW150 SCT250
NW 86 nm 322' KTCM TAF KTCM 160500Z 1605/1711 20006KT 9999 OVC045 QNH3012INS
  BECMG 1611/1612 17005KT 9999 FEW060 BKN180 QNH3005INS
  BECMG 1617/1618 19010G15KT 9999 BKN100 OVC200 QNH3000INS
  BECMG 1710/1711 19006KT 9999 VCSH SCT015 OVC035 QNH2979INS TX18/1623Z TN08/1613Z
SE 88 nm 1496' KPDT KPDT 160525Z 1606/1706 13006KT P6SM SCT200
  FM161800 31006KT P6SM SKC
  FM170000 05003KT P6SM SKC
W 89 nm 301' KGRF TAF KGRF 160500Z 1605/1711 14004KT 9999 BKN050 QNH3011INS
  BECMG 1609/1610 20005KT 9999 SCT040 BKN080 QNH3009INS
  BECMG 1617/1618 20010G18KT 9999 SCT030 QNH3001INS
  BECMG 1708/1709 20005KT 9999 BKN030 QNH2977INS TX17/1622Z TN10/1615Z
NW 89 nm 432' KSEA TAF
  AMD KSEA 160857Z 1609/1712 17006KT P6SM VCSH FEW070 BKN090 OVC110
  FM161600 19008KT P6SM SCT020 BKN050 OVC100
  FM162300 19007KT P6SM BKN070 OVC120
  FM170500 20006KT P6SM VCSH BKN050 OVC070
  FM171000 21003KT P6SM BKN025 OVC050
NW 92 nm 21' KBFI KBFI 160522Z 1606/1706 14007KT P6SM VCSH BKN060 OVC090
  FM160900 18008KT P6SM -RA SCT027 OVC040
  FM161600 18008KT P6SM SCT025 BKN050 OVC100
  FM162300 17008KT P6SM BKN070 OVC120
  FM170300 16005KT P6SM VCSH BKN070 OVC080
E 97 nm 1194' KALW KALW 160525Z 1606/1706 14007KT P6SM SCT200
  FM161800 24005KT P6SM BKN250
  FM170000 16004KT P6SM FEW250
SW 98 nm 38' KTTD TAF KTTD 160520Z 1606/1706 VRB03KT P6SM FEW250
W 99 nm 207' KOLM KOLM 160522Z 1606/1706 15003KT P6SM OVC050
  FM161500 18007KT P6SM OVC050
  FM170000 21005KT P6SM OVC100

Shortcut to this page: http://wxbay.com.

Data may contain errors.